sensor_id;sensor_type;location;lat;lon;timestamp;temperature;humidity
1277;DHT22;631;51.024;13.826;2023-08-01T00:01:29;19.50;99.90
1277;DHT22;631;51.024;13.826;2023-08-01T00:03:55;19.30;1.00
1277;DHT22;631;51.024;13.826;2023-08-01T00:06:21;19.30;1.00
1277;DHT22;631;51.024;13.826;2023-08-01T00:08:47;19.30;1.00
1277;DHT22;631;51.024;13.826;2023-08-01T00:11:13;19.30;1.00
1277;DHT22;631;51.024;13.826;2023-08-01T00:13:40;19.30;99.90
1277;DHT22;631;51.024;13.826;2023-08-01T00:16:06;19.30;62.70
1277;DHT22;631;51.024;13.826;2023-08-01T00:18:31;19.30;99.90
1277;DHT22;631;51.024;13.826;2023-08-01T00:20:57;19.30;99.90
1277;DHT22;631;51.024;13.826;2023-08-01T00:23:24;19.30;1.00
1277;DHT22;631;51.024;13.826;2023-08-01T00:25:50;19.20;99.90
1277;DHT22;631;51.024;13.826;2023-08-01T00:28:21;19.20;99.90
1277;DHT22;631;51.024;13.826;2023-08-01T00:30:47;19.20;99.90
1277;DHT22;631;51.024;13.826;2023-08-01T00:33:13;19.20;1.00
1277;DHT22;631;51.024;13.826;2023-08-01T00:35:40;19.20;99.90
1277;DHT22;631;51.024;13.826;2023-08-01T00:38:07;19.20;1.00
1277;DHT22;631;51.024;13.826;2023-08-01T00:40:33;19.20;1.00
1277;DHT22;631;51.024;13.826;2023-08-01T00:43:00;19.20;62.90
1277;DHT22;631;51.024;13.826;2023-08-01T00:45:30;19.20;1.00
1277;DHT22;631;51.024;13.826;2023-08-01T00:47:56;19.20;1.00
1277;DHT22;631;51.024;13.826;2023-08-01T00:50:22;19.20;99.90
1277;DHT22;631;51.024;13.826;2023-08-01T00:52:50;19.20;1.00
1277;DHT22;631;51.024;13.826;2023-08-01T00:55:17;19.20;1.00
1277;DHT22;631;51.024;13.826;2023-08-01T00:57:43;19.20;99.90
1277;DHT22;631;51.024;13.826;2023-08-01T01:00:09;19.30;1.00
1277;DHT22;631;51.024;13.826;2023-08-01T01:02:36;19.30;1.00
1277;DHT22;631;51.024;13.826;2023-08-01T01:05:03;19.30;1.00
1277;DHT22;631;51.024;13.826;2023-08-01T01:07:29;19.30;1.00
1277;DHT22;631;51.024;13.826;2023-08-01T01:09:56;19.30;1.00
1277;DHT22;631;51.024;13.826;2023-08-01T01:12:21;19.30;99.90
1277;DHT22;631;51.024;13.826;2023-08-01T01:14:47;19.30;1.00
1277;DHT22;631;51.024;13.826;2023-08-01T01:17:14;19.30;99.90
1277;DHT22;631;51.024;13.826;2023-08-01T01:19:39;19.30;99.90
1277;DHT22;631;51.024;13.826;2023-08-01T01:22:07;19.40;99.90
1277;DHT22;631;51.024;13.826;2023-08-01T01:24:37;19.30;99.90
1277;DHT22;631;51.024;13.826;2023-08-01T01:27:07;19.30;99.90
1277;DHT22;631;51.024;13.826;2023-08-01T01:29:33;19.40;99.90
1277;DHT22;631;51.024;13.826;2023-08-01T01:32:00;19.40;99.90
1277;DHT22;631;51.024;13.826;2023-08-01T01:34:27;19.40;99.90
1277;DHT22;631;51.024;13.826;2023-08-01T01:36:53;19.40;99.90
1277;DHT22;631;51.024;13.826;2023-08-01T01:39:19;19.40;99.90
1277;DHT22;631;51.024;13.826;2023-08-01T01:41:45;19.40;99.90
1277;DHT22;631;51.024;13.826;2023-08-01T01:44:11;19.50;99.90
1277;DHT22;631;51.024;13.826;2023-08-01T01:46:37;19.70;99.90
1277;DHT22;631;51.024;13.826;2023-08-01T01:49:02;19.70;99.90
1277;DHT22;631;51.024;13.826;2023-08-01T01:51:29;19.80;99.90
1277;DHT22;631;51.024;13.826;2023-08-01T01:53:55;19.90;99.90
1277;DHT22;631;51.024;13.826;2023-08-01T01:56:20;19.90;99.90
1277;DHT22;631;51.024;13.826;2023-08-01T01:58:46;20.00;99.90
1277;DHT22;631;51.024;13.826;2023-08-01T02:01:12;20.10;99.90
1277;DHT22;631;51.024;13.826;2023-08-01T02:03:37;20.10;99.90
1277;DHT22;631;51.024;13.826;2023-08-01T02:06:03;20.00;99.90
1277;DHT22;631;51.024;13.826;2023-08-01T02:08:29;20.00;99.90
1277;DHT22;631;51.024;13.826;2023-08-01T02:10:55;20.00;99.90
1277;DHT22;631;51.024;13.826;2023-08-01T02:13:24;19.90;99.90
1277;DHT22;631;51.024;13.826;2023-08-01T02:15:49;19.70;99.90
1277;DHT22;631;51.024;13.826;2023-08-01T02:18:15;19.50;99.90
1277;DHT22;631;51.024;13.826;2023-08-01T02:20:41;19.20;99.90
1277;DHT22;631;51.024;13.826;2023-08-01T02:23:07;18.90;99.90
1277;DHT22;631;51.024;13.826;2023-08-01T02:25:32;18.70;1.00
1277;DHT22;631;51.024;13.826;2023-08-01T02:27:58;18.50;1.00
1277;DHT22;631;51.024;13.826;2023-08-01T02:30:23;18.40;99.90
1277;DHT22;631;51.024;13.826;2023-08-01T02:32:49;18.20;99.90
1277;DHT22;631;51.024;13.826;2023-08-01T02:35:15;18.10;1.00
1277;DHT22;631;51.024;13.826;2023-08-01T02:37:40;18.00;1.00
1277;DHT22;631;51.024;13.826;2023-08-01T02:40:08;18.00;1.00
1277;DHT22;631;51.024;13.826;2023-08-01T02:42:34;17.90;1.00
1277;DHT22;631;51.024;13.826;2023-08-01T02:45:00;17.80;1.00
1277;DHT22;631;51.024;13.826;2023-08-01T02:47:25;17.70;1.00
1277;DHT22;631;51.024;13.826;2023-08-01T02:49:51;17.70;1.00
1277;DHT22;631;51.024;13.826;2023-08-01T02:52:16;17.70;1.00
1277;DHT22;631;51.024;13.826;2023-08-01T02:54:42;17.60;1.00
1277;DHT22;631;51.024;13.826;2023-08-01T02:57:08;17.60;22.70
1277;DHT22;631;51.024;13.826;2023-08-01T02:59:33;17.60;53.70
1277;DHT22;631;51.024;13.826;2023-08-01T03:01:59;17.60;93.70
1277;DHT22;631;51.024;13.826;2023-08-01T03:04:25;17.60;99.90
1277;DHT22;631;51.024;13.826;2023-08-01T03:06:50;17.60;99.90
1277;DHT22;631;51.024;13.826;2023-08-01T03:09:16;17.60;99.90
1277;DHT22;631;51.024;13.826;2023-08-01T03:11:41;17.50;99.90
1277;DHT22;631;51.024;13.826;2023-08-01T03:14:07;17.60;99.90
1277;DHT22;631;51.024;13.826;2023-08-01T03:16:33;17.50;99.90
1277;DHT22;631;51.024;13.826;2023-08-01T03:18:58;17.60;99.90
1277;DHT22;631;51.024;13.826;2023-08-01T03:21:33;17.50;99.90
1277;DHT22;631;51.024;13.826;2023-08-01T03:23:59;17.50;99.90
1277;DHT22;631;51.024;13.826;2023-08-01T03:26:25;17.50;99.90
1277;DHT22;631;51.024;13.826;2023-08-01T03:28:51;17.50;99.90
1277;DHT22;631;51.024;13.826;2023-08-01T03:31:16;17.50;99.90
1277;DHT22;631;51.024;13.826;2023-08-01T03:33:42;17.50;99.90
1277;DHT22;631;51.024;13.826;2023-08-01T03:36:07;17.50;99.90
1277;DHT22;631;51.024;13.826;2023-08-01T03:38:33;17.50;99.90
1277;DHT22;631;51.024;13.826;2023-08-01T03:40:59;17.50;99.90
1277;DHT22;631;51.024;13.826;2023-08-01T03:43:24;17.50;99.90
1277;DHT22;631;51.024;13.826;2023-08-01T03:45:51;17.40;99.90
1277;DHT22;631;51.024;13.826;2023-08-01T03:48:16;17.40;99.90
1277;DHT22;631;51.024;13.826;2023-08-01T03:50:42;17.40;99.90
1277;DHT22;631;51.024;13.826;2023-08-01T03:53:08;17.40;99.90
1277;DHT22;631;51.024;13.826;2023-08-01T03:55:33;17.40;99.90
1277;DHT22;631;51.024;13.826;2023-08-01T03:57:59;17.40;99.90
1277;DHT22;631;51.024;13.826;2023-08-01T04:00:24;17.40;99.90
1277;DHT22;631;51.024;13.826;2023-08-01T04:02:50;17.40;99.90
1277;DHT22;631;51.024;13.826;2023-08-01T04:05:16;17.50;99.90
1277;DHT22;631;51.024;13.826;2023-08-01T04:07:42;17.50;99.90
1277;DHT22;631;51.024;13.826;2023-08-01T04:10:08;17.50;99.90
1277;DHT22;631;51.024;13.826;2023-08-01T04:12:34;17.50;99.90
1277;DHT22;631;51.024;13.826;2023-08-01T04:15:00;17.50;99.90
1277;DHT22;631;51.024;13.826;2023-08-01T04:17:26;17.50;99.90
1277;DHT22;631;51.024;13.826;2023-08-01T04:19:52;17.60;99.90
1277;DHT22;631;51.024;13.826;2023-08-01T04:22:18;17.60;99.90
1277;DHT22;631;51.024;13.826;2023-08-01T04:24:44;17.60;99.90
1277;DHT22;631;51.024;13.826;2023-08-01T04:27:09;17.70;99.90
1277;DHT22;631;51.024;13.826;2023-08-01T04:29:35;17.70;99.90
1277;DHT22;631;51.024;13.826;2023-08-01T04:32:01;17.70;99.90
1277;DHT22;631;51.024;13.826;2023-08-01T04:34:26;17.80;99.90
1277;DHT22;631;51.024;13.826;2023-08-01T04:36:52;17.80;99.90
1277;DHT22;631;51.024;13.826;2023-08-01T04:39:17;17.90;99.90
1277;DHT22;631;51.024;13.826;2023-08-01T04:41:43;17.90;99.90
1277;DHT22;631;51.024;13.826;2023-08-01T04:44:09;18.00;99.90
1277;DHT22;631;51.024;13.826;2023-08-01T04:46:34;18.00;99.90
1277;DHT22;631;51.024;13.826;2023-08-01T04:49:00;18.00;99.90
1277;DHT22;631;51.024;13.826;2023-08-01T04:51:25;18.10;99.90
1277;DHT22;631;51.024;13.826;2023-08-01T04:53:51;18.10;99.90
1277;DHT22;631;51.024;13.826;2023-08-01T04:56:17;18.20;99.90
1277;DHT22;631;51.024;13.826;2023-08-01T04:58:43;18.30;99.90
1277;DHT22;631;51.024;13.826;2023-08-01T05:01:08;18.20;99.90
1277;DHT22;631;51.024;13.826;2023-08-01T05:03:34;18.30;99.90
1277;DHT22;631;51.024;13.826;2023-08-01T05:05:59;18.20;99.90
1277;DHT22;631;51.024;13.826;2023-08-01T05:08:25;18.20;99.90
1277;DHT22;631;51.024;13.826;2023-08-01T05:10:51;18.20;99.90
1277;DHT22;631;51.024;13.826;2023-08-01T05:13:16;18.20;99.90
1277;DHT22;631;51.024;13.826;2023-08-01T05:15:45;18.20;99.90
1277;DHT22;631;51.024;13.826;2023-08-01T05:18:16;18.30;99.90
1277;DHT22;631;51.024;13.826;2023-08-01T05:20:42;18.20;99.90
1277;DHT22;631;51.024;13.826;2023-08-01T05:23:08;18.30;99.90
1277;DHT22;631;51.024;13.826;2023-08-01T05:25:33;18.20;99.90
1277;DHT22;631;51.024;13.826;2023-08-01T05:27:59;18.20;99.90
1277;DHT22;631;51.024;13.826;2023-08-01T05:30:25;18.20;99.90
1277;DHT22;631;51.024;13.826;2023-08-01T05:32:50;18.20;99.90
1277;DHT22;631;51.024;13.826;2023-08-01T05:35:16;18.20;99.90
1277;DHT22;631;51.024;13.826;2023-08-01T05:37:42;18.20;99.90
1277;DHT22;631;51.024;13.826;2023-08-01T05:40:08;18.10;99.90
1277;DHT22;631;51.024;13.826;2023-08-01T05:42:34;18.10;99.90
1277;DHT22;631;51.024;13.826;2023-08-01T05:45:00;18.10;99.90
1277;DHT22;631;51.024;13.826;2023-08-01T05:47:25;18.10;99.90
1277;DHT22;631;51.024;13.826;2023-08-01T05:49:51;18.10;99.90
1277;DHT22;631;51.024;13.826;2023-08-01T05:52:17;18.10;99.90
1277;DHT22;631;51.024;13.826;2023-08-01T05:54:42;18.20;99.90
1277;DHT22;631;51.024;13.826;2023-08-01T05:57:08;18.20;99.90
1277;DHT22;631;51.024;13.826;2023-08-01T05:59:34;18.30;99.90
1277;DHT22;631;51.024;13.826;2023-08-01T06:01:59;18.30;99.90
1277;DHT22;631;51.024;13.826;2023-08-01T06:04:25;18.30;99.90
1277;DHT22;631;51.024;13.826;2023-08-01T06:06:51;18.30;99.90
1277;DHT22;631;51.024;13.826;2023-08-01T06:09:16;18.30;99.90
1277;DHT22;631;51.024;13.826;2023-08-01T06:11:42;18.40;99.90
1277;DHT22;631;51.024;13.826;2023-08-01T06:14:09;18.50;99.90
1277;DHT22;631;51.024;13.826;2023-08-01T06:16:35;18.60;99.90
1277;DHT22;631;51.024;13.826;2023-08-01T06:19:00;18.70;99.90
1277;DHT22;631;51.024;13.826;2023-08-01T06:21:26;18.70;99.90
1277;DHT22;631;51.024;13.826;2023-08-01T06:23:51;18.80;99.90
1277;DHT22;631;51.024;13.826;2023-08-01T06:26:17;18.80;99.90
1277;DHT22;631;51.024;13.826;2023-08-01T06:28:42;18.90;99.90
1277;DHT22;631;51.024;13.826;2023-08-01T06:31:08;19.00;99.90
1277;DHT22;631;51.024;13.826;2023-08-01T06:33:34;19.00;99.90
1277;DHT22;631;51.024;13.826;2023-08-01T06:35:59;19.00;99.90
1277;DHT22;631;51.024;13.826;2023-08-01T06:38:25;19.00;99.90
1277;DHT22;631;51.024;13.826;2023-08-01T06:40:51;18.90;99.90
1277;DHT22;631;51.024;13.826;2023-08-01T06:43:16;18.90;99.90
1277;DHT22;631;51.024;13.826;2023-08-01T06:45:42;18.90;99.90
1277;DHT22;631;51.024;13.826;2023-08-01T06:48:07;18.90;99.90
1277;DHT22;631;51.024;13.826;2023-08-01T06:50:34;19.00;95.10
1277;DHT22;631;51.024;13.826;2023-08-01T06:52:59;19.10;93.70
1277;DHT22;631;51.024;13.826;2023-08-01T06:55:26;18.90;99.90
1277;DHT22;631;51.024;13.826;2023-08-01T06:57:52;18.70;99.90
1277;DHT22;631;51.024;13.826;2023-08-01T07:00:17;18.70;99.90
1277;DHT22;631;51.024;13.826;2023-08-01T07:02:43;18.70;99.90
1277;DHT22;631;51.024;13.826;2023-08-01T07:05:09;18.70;99.90
1277;DHT22;631;51.024;13.826;2023-08-01T07:07:34;18.70;99.90
1277;DHT22;631;51.024;13.826;2023-08-01T07:10:00;18.70;99.90
1277;DHT22;631;51.024;13.826;2023-08-01T07:12:25;18.80;99.90
1277;DHT22;631;51.024;13.826;2023-08-01T07:14:51;18.80;99.90
1277;DHT22;631;51.024;13.826;2023-08-01T07:17:17;18.80;98.90
1277;DHT22;631;51.024;13.826;2023-08-01T07:19:42;18.80;99.90
1277;DHT22;631;51.024;13.826;2023-08-01T07:22:08;18.90;99.90
1277;DHT22;631;51.024;13.826;2023-08-01T07:24:34;18.90;99.90
1277;DHT22;631;51.024;13.826;2023-08-01T07:27:00;19.00;93.70
1277;DHT22;631;51.024;13.826;2023-08-01T07:29:25;19.00;99.90
1277;DHT22;631;51.024;13.826;2023-08-01T07:31:51;19.10;99.90
1277;DHT22;631;51.024;13.826;2023-08-01T07:34:16;19.20;95.90
1277;DHT22;631;51.024;13.826;2023-08-01T07:36:42;19.50;55.50
1277;DHT22;631;51.024;13.826;2023-08-01T07:39:08;19.60;78.70
1277;DHT22;631;51.024;13.826;2023-08-01T07:41:34;19.80;17.20
1277;DHT22;631;51.024;13.826;2023-08-01T07:44:01;19.90;49.10
1277;DHT22;631;51.024;13.826;2023-08-01T07:46:28;20.10;42.60
1277;DHT22;631;51.024;13.826;2023-08-01T07:48:53;20.20;19.10
1277;DHT22;631;51.024;13.826;2023-08-01T07:51:19;20.30;1.00
1277;DHT22;631;51.024;13.826;2023-08-01T07:53:45;20.30;1.00
1277;DHT22;631;51.024;13.826;2023-08-01T07:56:10;20.30;1.00
1277;DHT22;631;51.024;13.826;2023-08-01T07:58:36;20.40;1.00
1277;DHT22;631;51.024;13.826;2023-08-01T08:01:06;20.20;1.00
1277;DHT22;631;51.024;13.826;2023-08-01T08:03:31;20.10;1.00
1277;DHT22;631;51.024;13.826;2023-08-01T08:05:58;19.90;6.00
1277;DHT22;631;51.024;13.826;2023-08-01T08:08:24;19.90;1.00
1277;DHT22;631;51.024;13.826;2023-08-01T08:10:50;20.00;8.00
1277;DHT22;631;51.024;13.826;2023-08-01T08:13:15;20.10;6.20
1277;DHT22;631;51.024;13.826;2023-08-01T08:15:41;20.20;1.00
1277;DHT22;631;51.024;13.826;2023-08-01T08:18:07;20.30;1.00
1277;DHT22;631;51.024;13.826;2023-08-01T08:20:41;20.40;1.00
1277;DHT22;631;51.024;13.826;2023-08-01T08:23:07;20.50;1.00
1277;DHT22;631;51.024;13.826;2023-08-01T08:25:32;20.60;1.00
1277;DHT22;631;51.024;13.826;2023-08-01T08:27:58;20.70;1.00
1277;DHT22;631;51.024;13.826;2023-08-01T08:30:24;20.80;1.00
1277;DHT22;631;51.024;13.826;2023-08-01T08:32:50;21.00;1.00
1277;DHT22;631;51.024;13.826;2023-08-01T08:35:15;21.10;1.00
1277;DHT22;631;51.024;13.826;2023-08-01T08:37:41;21.20;1.00
1277;DHT22;631;51.024;13.826;2023-08-01T08:40:07;21.10;1.00
1277;DHT22;631;51.024;13.826;2023-08-01T08:42:34;21.00;1.00
1277;DHT22;631;51.024;13.826;2023-08-01T08:45:04;21.10;1.00
1277;DHT22;631;51.024;13.826;2023-08-01T08:47:38;21.10;1.00
1277;DHT22;631;51.024;13.826;2023-08-01T08:50:06;21.20;1.00
1277;DHT22;631;51.024;13.826;2023-08-01T08:52:33;21.20;1.00
1277;DHT22;631;51.024;13.826;2023-08-01T08:55:00;21.30;1.00
1277;DHT22;631;51.024;13.826;2023-08-01T08:57:26;21.40;1.00
1277;DHT22;631;51.024;13.826;2023-08-01T08:59:52;21.50;1.00
1277;DHT22;631;51.024;13.826;2023-08-01T09:02:18;21.40;1.00
1277;DHT22;631;51.024;13.826;2023-08-01T09:04:44;21.70;1.00
1277;DHT22;631;51.024;13.826;2023-08-01T09:07:10;21.80;1.00
1277;DHT22;631;51.024;13.826;2023-08-01T09:09:39;21.60;1.00
1277;DHT22;631;51.024;13.826;2023-08-01T09:12:05;21.50;99.90
1277;DHT22;631;51.024;13.826;2023-08-01T09:14:32;21.30;1.00
1277;DHT22;631;51.024;13.826;2023-08-01T09:17:06;21.40;99.90
1277;DHT22;631;51.024;13.826;2023-08-01T09:19:33;21.60;1.00
1277;DHT22;631;51.024;13.826;2023-08-01T09:21:59;21.50;99.90
1277;DHT22;631;51.024;13.826;2023-08-01T09:24:25;21.30;1.00
1277;DHT22;631;51.024;13.826;2023-08-01T09:26:50;21.30;1.00
1277;DHT22;631;51.024;13.826;2023-08-01T09:29:17;20.90;1.00
1277;DHT22;631;51.024;13.826;2023-08-01T09:31:43;20.60;1.00
1277;DHT22;631;51.024;13.826;2023-08-01T09:34:23;20.30;1.00
1277;DHT22;631;51.024;13.826;2023-08-01T09:36:50;20.10;99.90
1277;DHT22;631;51.024;13.826;2023-08-01T09:39:20;19.90;99.90
1277;DHT22;631;51.024;13.826;2023-08-01T09:41:56;19.80;99.90
1277;DHT22;631;51.024;13.826;2023-08-01T09:44:22;19.80;99.90
1277;DHT22;631;51.024;13.826;2023-08-01T09:46:58;19.90;99.90
1277;DHT22;631;51.024;13.826;2023-08-01T09:49:25;20.00;1.00
1277;DHT22;631;51.024;13.826;2023-08-01T09:51:51;20.20;1.00
1277;DHT22;631;51.024;13.826;2023-08-01T09:54:17;20.30;1.00
1277;DHT22;631;51.024;13.826;2023-08-01T09:56:48;20.40;1.00
1277;DHT22;631;51.024;13.826;2023-08-01T09:59:25;20.70;99.90
1277;DHT22;631;51.024;13.826;2023-08-01T10:01:53;20.80;1.00
1277;DHT22;631;51.024;13.826;2023-08-01T10:04:24;21.00;99.90
1277;DHT22;631;51.024;13.826;2023-08-01T10:06:54;21.10;1.00
1277;DHT22;631;51.024;13.826;2023-08-01T10:09:21;21.20;1.00
1277;DHT22;631;51.024;13.826;2023-08-01T10:11:48;21.30;99.90
1277;DHT22;631;51.024;13.826;2023-08-01T10:14:15;21.40;99.90
1277;DHT22;631;51.024;13.826;2023-08-01T10:16:43;21.40;99.90
1277;DHT22;631;51.024;13.826;2023-08-01T10:19:09;21.50;99.90
1277;DHT22;631;51.024;13.826;2023-08-01T10:21:37;21.40;99.90
1277;DHT22;631;51.024;13.826;2023-08-01T10:24:04;21.50;99.90
1277;DHT22;631;51.024;13.826;2023-08-01T10:26:30;21.50;99.90
1277;DHT22;631;51.024;13.826;2023-08-01T10:28:56;21.50;43.10
1277;DHT22;631;51.024;13.826;2023-08-01T10:31:24;21.50;57.30
1277;DHT22;631;51.024;13.826;2023-08-01T10:33:50;21.50;22.10
1277;DHT22;631;51.024;13.826;2023-08-01T10:36:17;21.60;1.00
1277;DHT22;631;51.024;13.826;2023-08-01T10:41:24;22.00;1.00
1277;DHT22;631;51.024;13.826;2023-08-01T10:43:50;22.00;1.00
1277;DHT22;631;51.024;13.826;2023-08-01T10:46:15;22.00;1.00
1277;DHT22;631;51.024;13.826;2023-08-01T10:48:51;22.10;1.00
1277;DHT22;631;51.024;13.826;2023-08-01T10:51:17;22.60;1.00
1277;DHT22;631;51.024;13.826;2023-08-01T10:53:43;22.80;1.00
1277;DHT22;631;51.024;13.826;2023-08-01T10:56:16;23.30;1.00
1277;DHT22;631;51.024;13.826;2023-08-01T10:58:41;23.80;1.00
1277;DHT22;631;51.024;13.826;2023-08-01T11:01:07;23.90;1.00
1277;DHT22;631;51.024;13.826;2023-08-01T11:03:36;24.20;1.00
1277;DHT22;631;51.024;13.826;2023-08-01T11:06:02;24.50;1.00
1277;DHT22;631;51.024;13.826;2023-08-01T11:08:39;24.70;1.00
1277;DHT22;631;51.024;13.826;2023-08-01T11:11:08;24.50;1.00
1277;DHT22;631;51.024;13.826;2023-08-01T11:13:36;24.10;99.90
1277;DHT22;631;51.024;13.826;2023-08-01T11:16:05;23.80;99.90
1277;DHT22;631;51.024;13.826;2023-08-01T11:18:44;23.30;99.90
1277;DHT22;631;51.024;13.826;2023-08-01T11:21:09;23.10;1.00
1277;DHT22;631;51.024;13.826;2023-08-01T11:23:35;22.90;1.00
1277;DHT22;631;51.024;13.826;2023-08-01T11:26:07;23.10;1.00
1277;DHT22;631;51.024;13.826;2023-08-01T11:28:34;23.20;1.00
1277;DHT22;631;51.024;13.826;2023-08-01T11:30:59;23.20;1.00
1277;DHT22;631;51.024;13.826;2023-08-01T11:33:25;23.30;99.90
1277;DHT22;631;51.024;13.826;2023-08-01T11:35:51;23.50;99.90
1277;DHT22;631;51.024;13.826;2023-08-01T11:38:20;23.50;99.90
1277;DHT22;631;51.024;13.826;2023-08-01T11:40:47;23.60;99.90
1277;DHT22;631;51.024;13.826;2023-08-01T11:43:15;23.90;99.90
1277;DHT22;631;51.024;13.826;2023-08-01T11:45:48;24.00;99.90
1277;DHT22;631;51.024;13.826;2023-08-01T11:48:14;24.20;99.90
1277;DHT22;631;51.024;13.826;2023-08-01T11:50:40;24.20;99.90
1277;DHT22;631;51.024;13.826;2023-08-01T11:53:05;24.30;99.90
1277;DHT22;631;51.024;13.826;2023-08-01T11:55:35;24.30;99.90
1277;DHT22;631;51.024;13.826;2023-08-01T11:58:04;24.00;99.90
1277;DHT22;631;51.024;13.826;2023-08-01T12:00:30;24.10;99.90
1277;DHT22;631;51.024;13.826;2023-08-01T12:03:06;24.20;99.90
1277;DHT22;631;51.024;13.826;2023-08-01T12:05:32;24.10;99.90
1277;DHT22;631;51.024;13.826;2023-08-01T12:08:09;24.10;99.90
1277;DHT22;631;51.024;13.826;2023-08-01T12:10:44;24.10;99.90
1277;DHT22;631;51.024;13.826;2023-08-01T12:13:21;24.20;99.90
1277;DHT22;631;51.024;13.826;2023-08-01T12:15:51;23.70;99.90
1277;DHT22;631;51.024;13.826;2023-08-01T12:18:25;23.50;99.90
1277;DHT22;631;51.024;13.826;2023-08-01T12:20:51;23.30;99.90
1277;DHT22;631;51.024;13.826;2023-08-01T12:23:17;23.20;1.00
1277;DHT22;631;51.024;13.826;2023-08-01T12:25:43;23.00;1.00
1277;DHT22;631;51.024;13.826;2023-08-01T12:28:09;22.20;1.00
1277;DHT22;631;51.024;13.826;2023-08-01T12:30:34;21.30;99.90
1277;DHT22;631;51.024;13.826;2023-08-01T12:33:00;20.10;1.00
1277;DHT22;631;51.024;13.826;2023-08-01T12:35:26;19.40;1.00
1277;DHT22;631;51.024;13.826;2023-08-01T12:37:53;18.90;1.00
1277;DHT22;631;51.024;13.826;2023-08-01T12:40:19;18.40;12.40
1277;DHT22;631;51.024;13.826;2023-08-01T12:42:45;18.00;99.90
1277;DHT22;631;51.024;13.826;2023-08-01T12:45:11;17.90;99.90
1277;DHT22;631;51.024;13.826;2023-08-01T12:47:37;17.70;99.90
1277;DHT22;631;51.024;13.826;2023-08-01T12:50:02;17.60;99.90
1277;DHT22;631;51.024;13.826;2023-08-01T12:52:29;17.50;99.90
1277;DHT22;631;51.024;13.826;2023-08-01T12:54:54;17.40;99.90
1277;DHT22;631;51.024;13.826;2023-08-01T12:57:20;17.40;99.90
1277;DHT22;631;51.024;13.826;2023-08-01T12:59:46;17.30;99.90
1277;DHT22;631;51.024;13.826;2023-08-01T13:02:12;17.30;99.90
1277;DHT22;631;51.024;13.826;2023-08-01T13:04:37;17.40;99.90
1277;DHT22;631;51.024;13.826;2023-08-01T13:07:03;17.40;99.90
1277;DHT22;631;51.024;13.826;2023-08-01T13:09:29;17.40;99.90
1277;DHT22;631;51.024;13.826;2023-08-01T13:11:54;17.40;99.90
1277;DHT22;631;51.024;13.826;2023-08-01T13:14:22;17.50;99.90
1277;DHT22;631;51.024;13.826;2023-08-01T13:16:48;17.60;99.90
1277;DHT22;631;51.024;13.826;2023-08-01T13:19:14;17.80;99.90
1277;DHT22;631;51.024;13.826;2023-08-01T13:21:41;18.20;99.90
1277;DHT22;631;51.024;13.826;2023-08-01T13:24:06;18.50;99.90
1277;DHT22;631;51.024;13.826;2023-08-01T13:26:32;18.80;99.90
1277;DHT22;631;51.024;13.826;2023-08-01T13:28:58;19.10;99.90
1277;DHT22;631;51.024;13.826;2023-08-01T13:31:25;19.20;99.90
1277;DHT22;631;51.024;13.826;2023-08-01T13:33:50;19.50;99.90
1277;DHT22;631;51.024;13.826;2023-08-01T13:36:17;20.00;99.90
1277;DHT22;631;51.024;13.826;2023-08-01T13:38:44;20.60;50.10
1277;DHT22;631;51.024;13.826;2023-08-01T13:41:09;20.70;1.00
1277;DHT22;631;51.024;13.826;2023-08-01T13:43:35;21.00;1.00
1277;DHT22;631;51.024;13.826;2023-08-01T13:46:01;21.40;1.00
1277;DHT22;631;51.024;13.826;2023-08-01T13:48:26;21.30;1.00
1277;DHT22;631;51.024;13.826;2023-08-01T13:50:52;21.10;1.00
1277;DHT22;631;51.024;13.826;2023-08-01T13:53:18;21.30;1.00
1277;DHT22;631;51.024;13.826;2023-08-01T13:55:44;21.20;1.00
1277;DHT22;631;51.024;13.826;2023-08-01T13:58:09;21.50;1.00
1277;DHT22;631;51.024;13.826;2023-08-01T14:00:35;21.90;1.00
1277;DHT22;631;51.024;13.826;2023-08-01T14:03:01;22.00;1.00
1277;DHT22;631;51.024;13.826;2023-08-01T14:05:27;22.30;1.00
1277;DHT22;631;51.024;13.826;2023-08-01T14:07:53;22.60;1.00
1277;DHT22;631;51.024;13.826;2023-08-01T14:10:19;22.40;1.00
1277;DHT22;631;51.024;13.826;2023-08-01T14:12:44;22.40;1.00
1277;DHT22;631;51.024;13.826;2023-08-01T14:15:10;22.60;1.00
1277;DHT22;631;51.024;13.826;2023-08-01T14:17:37;22.70;99.90
1277;DHT22;631;51.024;13.826;2023-08-01T14:20:03;22.70;99.90
1277;DHT22;631;51.024;13.826;2023-08-01T14:22:30;22.40;1.00
1277;DHT22;631;51.024;13.826;2023-08-01T14:24:55;22.10;99.90
1277;DHT22;631;51.024;13.826;2023-08-01T14:27:21;22.00;99.90
1277;DHT22;631;51.024;13.826;2023-08-01T14:29:47;22.20;47.30
1277;DHT22;631;51.024;13.826;2023-08-01T14:32:19;22.10;1.00
1277;DHT22;631;51.024;13.826;2023-08-01T14:34:45;21.90;99.90
1277;DHT22;631;51.024;13.826;2023-08-01T14:37:10;22.00;99.90
1277;DHT22;631;51.024;13.826;2023-08-01T14:39:36;22.10;1.00
1277;DHT22;631;51.024;13.826;2023-08-01T14:42:01;22.30;99.90
1277;DHT22;631;51.024;13.826;2023-08-01T14:44:27;22.50;1.00
1277;DHT22;631;51.024;13.826;2023-08-01T14:46:53;22.40;99.90
1277;DHT22;631;51.024;13.826;2023-08-01T14:49:20;22.50;1.00
1277;DHT22;631;51.024;13.826;2023-08-01T14:51:48;22.90;99.90
1277;DHT22;631;51.024;13.826;2023-08-01T14:54:14;23.20;99.90
1277;DHT22;631;51.024;13.826;2023-08-01T14:56:40;23.20;99.90
1277;DHT22;631;51.024;13.826;2023-08-01T14:59:06;23.10;55.20
1277;DHT22;631;51.024;13.826;2023-08-01T15:01:31;23.20;37.80
1277;DHT22;631;51.024;13.826;2023-08-01T15:03:57;23.30;1.00
1277;DHT22;631;51.024;13.826;2023-08-01T15:06:22;23.20;1.00
1277;DHT22;631;51.024;13.826;2023-08-01T15:08:49;23.40;1.00
1277;DHT22;631;51.024;13.826;2023-08-01T15:11:15;23.40;1.00
1277;DHT22;631;51.024;13.826;2023-08-01T15:13:40;23.70;1.00
1277;DHT22;631;51.024;13.826;2023-08-01T15:16:11;23.70;1.00
1277;DHT22;631;51.024;13.826;2023-08-01T15:18:37;23.70;1.00
1277;DHT22;631;51.024;13.826;2023-08-01T15:21:02;23.90;1.00
1277;DHT22;631;51.024;13.826;2023-08-01T15:23:28;24.00;1.00
1277;DHT22;631;51.024;13.826;2023-08-01T15:25:55;23.90;1.00
1277;DHT22;631;51.024;13.826;2023-08-01T15:28:22;23.80;1.00
1277;DHT22;631;51.024;13.826;2023-08-01T15:30:48;24.20;1.00
1277;DHT22;631;51.024;13.826;2023-08-01T15:33:15;24.40;1.00
1277;DHT22;631;51.024;13.826;2023-08-01T15:35:41;24.50;1.00
1277;DHT22;631;51.024;13.826;2023-08-01T15:38:09;24.50;1.00
1277;DHT22;631;51.024;13.826;2023-08-01T15:40:34;24.10;1.00
1277;DHT22;631;51.024;13.826;2023-08-01T15:43:00;23.50;1.00
1277;DHT22;631;51.024;13.826;2023-08-01T15:45:25;23.30;1.00
1277;DHT22;631;51.024;13.826;2023-08-01T15:47:51;23.00;1.00
1277;DHT22;631;51.024;13.826;2023-08-01T15:50:17;22.80;1.00
1277;DHT22;631;51.024;13.826;2023-08-01T15:52:43;22.60;1.00
1277;DHT22;631;51.024;13.826;2023-08-01T15:55:08;22.30;1.00
1277;DHT22;631;51.024;13.826;2023-08-01T15:57:35;22.20;1.00
1277;DHT22;631;51.024;13.826;2023-08-01T16:00:00;22.00;1.00
1277;DHT22;631;51.024;13.826;2023-08-01T16:02:26;22.00;53.60
1277;DHT22;631;51.024;13.826;2023-08-01T16:04:51;22.00;99.90